Terminal Aerodrome Forecast
Issued by NWS Sterling, VA

Current Version | Previous Version | Text Only | Print | Product List | Glossary Off
Versions: 1 2 3 4 5 6 7 8 9 10 11 12 13

000
FTUS41 KLWX 132041 AAA
TAFMRB
TAF AMD
KMRB 132041Z 1321/1418 32011G21KT P6SM SCT050
     FM140200 33012G20KT P6SM FEW050 FEW250
     FM141000 34008G16KT P6SM FEW250=

USA.gov is the U.S. government's official web portal to all federal, state and local government web resources and services.